createdAt,value
2022-10-15T00:03:32.981Z,100689.28
2022-10-15T00:08:55.486Z,100694.22
2022-10-15T00:14:17.613Z,100695.31
2022-10-15T00:19:39.256Z,100701.97
2022-10-15T00:25:00.901Z,100696.94
2022-10-15T00:30:22.686Z,100695.84
2022-10-15T00:35:44.390Z,100706.38
2022-10-15T00:41:07.906Z,100701.94
2022-10-15T00:46:38.158Z,100713.03
2022-10-15T00:52:04.154Z,100714.13
2022-10-15T00:57:26.093Z,100712.69
2022-10-15T01:02:48.410Z,100697.97
2022-10-15T01:08:10.065Z,100679.66
2022-10-15T01:13:43.488Z,100686.88
2022-10-15T01:19:31.171Z,100675.19
2022-10-15T01:25:03.610Z,100666.28
2022-10-15T01:30:30.282Z,100673.78
2022-10-15T01:36:18.578Z,100673.78
2022-10-15T01:41:46.826Z,100669.34
2022-10-15T01:47:32.578Z,100669.34
2022-10-15T01:52:56.860Z,100663.47
2022-10-15T01:58:18.916Z,100659.00
2022-10-15T02:03:51.628Z,100649.00
2022-10-15T02:09:40.944Z,100647.06
2022-10-15T02:15:20.578Z,100634.56
2022-10-15T02:21:08.259Z,100627.34
2022-10-15T02:26:30.969Z,100622.06
2022-10-15T02:31:54.355Z,100609.00
2022-10-15T02:37:19.986Z,100598.19
2022-10-15T02:42:41.839Z,100602.88
2022-10-15T02:48:03.706Z,100592.63
2022-10-15T02:53:25.512Z,100594.81
2022-10-15T02:58:47.153Z,100595.66
2022-10-15T03:04:08.819Z,100592.88
2022-10-15T03:09:30.494Z,100603.41
2022-10-15T03:14:53.117Z,100599.56
2022-10-15T03:20:14.839Z,100603.41
2022-10-15T03:25:36.611Z,100608.09
2022-10-15T03:30:58.326Z,100588.97
2022-10-15T03:36:19.980Z,100587.00
2022-10-15T03:41:42.200Z,100587.00
2022-10-15T03:47:04.041Z,100578.13
2022-10-15T03:52:25.977Z,100577.28
2022-10-15T03:57:48.265Z,100563.41
2022-10-15T04:03:10.085Z,100561.16
2022-10-15T04:08:32.012Z,100550.06
2022-10-15T04:13:53.716Z,100558.38
2022-10-15T04:19:16.360Z,100556.72
2022-10-15T04:24:38.279Z,100562.25
2022-10-15T04:29:59.918Z,100553.34
2022-10-15T04:35:21.979Z,100558.91
2022-10-15T04:40:43.621Z,100553.34
2022-10-15T04:46:07.316Z,100546.13
2022-10-15T04:51:29.235Z,100550.81
2022-10-15T04:56:50.897Z,100555.53
2022-10-15T05:02:12.648Z,100556.63
2022-10-15T05:07:34.350Z,100559.41
2022-10-15T05:12:57.011Z,100568.53
2022-10-15T05:18:18.922Z,100568.81
2022-10-15T05:23:40.753Z,100556.88
2022-10-15T05:29:02.818Z,100565.19
2022-10-15T05:34:26.947Z,100556.06
2022-10-15T05:39:48.589Z,100561.59
2022-10-15T05:45:10.886Z,100547.16
2022-10-15T05:50:32.576Z,100559.91
2022-10-15T05:55:54.457Z,100550.00
2022-10-15T06:01:16.280Z,100526.44
2022-10-15T06:06:37.973Z,100522.34
2022-10-15T06:11:59.667Z,100522.91
2022-10-15T06:17:21.634Z,100518.47
2022-10-15T06:22:43.583Z,100515.69
2022-10-15T06:28:06.821Z,100520.41
2022-10-15T06:33:29.254Z,100524.28
2022-10-15T06:38:51.027Z,100517.88
2022-10-15T06:44:12.667Z,100515.09
2022-10-15T06:49:34.369Z,100523.44
2022-10-15T06:54:56.031Z,100520.66
2022-10-15T07:00:17.901Z,100521.50
2022-10-15T07:05:39.567Z,100512.34
2022-10-15T07:11:02.942Z,100500.41
2022-10-15T07:16:24.776Z,100505.13
2022-10-15T07:21:46.425Z,100493.16
2022-10-15T07:27:18.454Z,100495.13
2022-10-15T07:32:41.981Z,100483.16
2022-10-15T07:38:05.295Z,100479.56
2022-10-15T07:43:27.602Z,100475.13
2022-10-15T07:48:49.253Z,100468.72
2022-10-15T07:54:10.932Z,100462.34
2022-10-15T07:59:33.178Z,100459.56
2022-10-15T08:04:54.808Z,100458.72
2022-10-15T08:10:16.518Z,100447.63
2022-10-15T08:15:41.793Z,100442.09
2022-10-15T08:21:04.909Z,100439.31
2022-10-15T08:26:26.807Z,100441.00
2022-10-15T08:31:49.533Z,100427.97
2022-10-15T08:37:11.321Z,100425.22
2022-10-15T08:42:38.115Z,100424.94
2022-10-15T08:48:10.750Z,100414.69
2022-10-15T08:53:38.765Z,100420.25
2022-10-15T08:59:20.645Z,100411.69
2022-10-15T09:04:53.397Z,100419.16
2022-10-15T09:10:43.703Z,100416.13
2022-10-15T09:16:16.616Z,100418.06
2022-10-15T09:21:38.706Z,100421.91
2022-10-15T09:27:10.285Z,100416.38
2022-10-15T09:32:50.580Z,100405.28
2022-10-15T09:38:58.509Z,100403.59
2022-10-15T09:44:23.489Z,100398.06
2022-10-15T09:49:45.366Z,100401.94
2022-10-15T09:55:09.770Z,100406.13
2022-10-15T10:01:05.825Z,100399.72
2022-10-15T10:06:27.481Z,100396.72
2022-10-15T10:11:55.068Z,100402.84
2022-10-15T10:17:19.943Z,100402.56
2022-10-15T10:22:50.447Z,100410.88
2022-10-15T10:28:15.836Z,100405.06
2022-10-15T10:33:40.315Z,100405.91
2022-10-15T10:39:15.155Z,100408.16
2022-10-15T10:44:39.797Z,100403.72
2022-10-15T10:50:01.472Z,100407.31
2022-10-15T10:55:26.648Z,100406.22
2022-10-15T11:00:52.768Z,100402.34
2022-10-15T11:06:33.069Z,100412.59
2022-10-15T11:12:12.741Z,100411.50
2022-10-15T11:18:04.964Z,100408.72
2022-10-15T11:24:03.446Z,100416.22
2022-10-15T11:30:06.480Z,100425.91
2022-10-15T11:35:53.304Z,100418.41
2022-10-15T11:41:29.446Z,100427.59
2022-10-15T11:47:26.998Z,100427.31
2022-10-15T11:53:32.312Z,100423.69
2022-10-15T11:59:15.389Z,100414.28
2022-10-15T12:04:57.361Z,100408.72
2022-10-15T12:10:33.176Z,100411.25
2022-10-15T12:16:25.589Z,100414.59
2022-10-15T12:21:55.941Z,100412.06
2022-10-15T12:27:20.311Z,100404.34
2022-10-15T12:32:48.851Z,100423.47
2022-10-15T12:38:20.037Z,100411.28
2022-10-15T12:44:03.943Z,100425.72
2022-10-15T12:49:30.374Z,100423.81
2022-10-15T12:54:52.666Z,100428.50
2022-10-15T13:00:26.225Z,100443.78
2022-10-15T13:05:51.532Z,100435.72
2022-10-15T13:11:30.079Z,100437.13
2022-10-15T13:16:51.743Z,100455.41
2022-10-15T13:22:23.345Z,100473.19
2022-10-15T13:27:45.319Z,100475.41
2022-10-15T13:33:10.671Z,100484.84
2022-10-15T13:38:42.793Z,100483.75
2022-10-15T13:44:06.945Z,100490.94
2022-10-15T13:49:29.088Z,100493.69
2022-10-15T13:54:50.889Z,100517.03
2022-10-15T14:00:34.877Z,100509.53
2022-10-15T14:05:58.162Z,100527.00
2022-10-15T14:11:20.256Z,100528.66
2022-10-15T14:16:47.747Z,100523.13
2022-10-15T14:22:18.458Z,100537.00
2022-10-15T14:27:45.749Z,100531.44
2022-10-15T14:33:31.640Z,100533.41
2022-10-15T14:38:54.395Z,100543.97
2022-10-15T14:44:18.624Z,100544.59
2022-10-15T14:49:40.787Z,100560.50
2022-10-15T14:55:09.489Z,100557.84
2022-10-15T15:00:40.597Z,100555.66
2022-10-15T15:06:02.229Z,100560.19
2022-10-15T15:11:25.612Z,100567.44
2022-10-15T15:16:47.310Z,100561.97
2022-10-15T15:22:15.378Z,100563.66
2022-10-15T15:27:37.748Z,100568.94
2022-10-15T15:33:00.845Z,100568.34
2022-10-15T15:38:25.307Z,100562.22
2022-10-15T15:43:47.734Z,100564.66
2022-10-15T15:49:10.692Z,100570.50
2022-10-15T15:54:32.585Z,100574.66
2022-10-15T15:59:54.269Z,100578.53
2022-10-15T16:05:17.005Z,100579.03
2022-10-15T16:10:38.754Z,100583.75
2022-10-15T16:16:00.589Z,100601.25
2022-10-15T16:21:26.107Z,100597.88
2022-10-15T16:26:47.715Z,100610.09
2022-10-15T16:32:09.434Z,100613.50
2022-10-15T16:37:31.101Z,100623.53
2022-10-15T16:42:52.856Z,100639.44
2022-10-15T16:48:14.524Z,100650.31
2022-10-15T16:53:37.893Z,100670.06
2022-10-15T16:58:59.540Z,100674.50
2022-10-15T17:04:21.314Z,100689.50
2022-10-15T17:09:45.105Z,100695.88
2022-10-15T17:15:07.448Z,100705.88
2022-10-15T17:20:29.154Z,100710.31
2022-10-15T17:25:50.843Z,100721.66
2022-10-15T17:31:16.320Z,100737.50
2022-10-15T17:36:42.998Z,100734.59
2022-10-15T17:42:04.633Z,100748.75
2022-10-15T17:47:26.538Z,100754.00
2022-10-15T17:52:48.714Z,100748.38
2022-10-15T17:58:10.431Z,100762.53
2022-10-15T18:03:32.146Z,100756.06
2022-10-15T18:08:54.782Z,100780.47
2022-10-15T18:14:17.548Z,100777.09
2022-10-15T18:19:39.310Z,100774.84
2022-10-15T18:25:00.947Z,100772.56
2022-10-15T18:30:22.775Z,100788.91
2022-10-15T18:35:44.545Z,100777.81
2022-10-15T18:41:28.346Z,100777.56
2022-10-15T18:46:51.087Z,100798.09
2022-10-15T18:52:21.688Z,100798.91
2022-10-15T18:57:55.170Z,100794.22
2022-10-15T19:03:17.159Z,100793.63
2022-10-15T19:08:38.963Z,100810.91
2022-10-15T19:14:01.318Z,100801.31
2022-10-15T19:19:25.490Z,100803.41
2022-10-15T19:24:47.181Z,100816.56
2022-10-15T19:30:09.229Z,100811.69
2022-10-15T19:35:30.883Z,100815.94
2022-10-15T19:40:53.707Z,100836.81
2022-10-15T19:46:15.609Z,100824.91
2022-10-15T19:51:37.300Z,100827.75
2022-10-15T19:56:58.975Z,100826.97
2022-10-15T20:02:20.653Z,100828.38
2022-10-15T20:07:42.865Z,100825.38
2022-10-15T20:13:04.571Z,100830.06
2022-10-15T20:18:26.303Z,100825.59
2022-10-15T20:23:48.516Z,100830.56
2022-10-15T20:29:10.408Z,100845.00
2022-10-15T20:34:32.976Z,100848.03
2022-10-15T20:39:54.700Z,100848.81
2022-10-15T20:45:16.794Z,100851.00
2022-10-15T20:50:38.548Z,100854.31
2022-10-15T20:56:01.470Z,100852.06
2022-10-15T21:01:23.213Z,100863.94
2022-10-15T21:06:45.145Z,100868.06
2022-10-15T21:12:08.744Z,100874.38
2022-10-15T21:17:30.389Z,100882.41
2022-10-15T21:22:52.050Z,100886.22
2022-10-15T21:28:13.787Z,100888.41
2022-10-15T21:33:36.313Z,100889.78
2022-10-15T21:39:01.762Z,100895.84
2022-10-15T21:44:23.585Z,100894.44
2022-10-15T21:49:45.969Z,100903.84
2022-10-15T21:55:07.975Z,100909.91
2022-10-15T22:00:29.664Z,100909.31
2022-10-15T22:05:51.393Z,100913.22
2022-10-15T22:11:17.890Z,100917.09
2022-10-15T22:16:40.926Z,100924.81
2022-10-15T22:22:02.648Z,100926.19
2022-10-15T22:27:25.197Z,100934.72
2022-10-15T22:32:46.818Z,100937.19
2022-10-15T22:38:08.513Z,100935.22
2022-10-15T22:43:30.235Z,100931.03
2022-10-15T22:48:53.743Z,100922.97
2022-10-15T22:54:17.210Z,100915.75
2022-10-15T22:59:41.966Z,100917.94
2022-10-15T23:05:03.842Z,100926.53
2022-10-15T23:10:25.523Z,100915.66
2022-10-15T23:15:47.189Z,100922.28
2022-10-15T23:21:20.865Z,100929.53
2022-10-15T23:26:43.156Z,100941.97
2022-10-15T23:32:04.919Z,100941.13
2022-10-15T23:37:27.043Z,100936.69
2022-10-15T23:42:48.958Z,100933.91
2022-10-15T23:48:10.615Z,100923.31
2022-10-15T23:53:33.356Z,100933.31
2022-10-15T23:59:00.496Z,100934.41
